Time;durP1;ratioP1;P1;durP2;ratioP2;P2;SDS_P1;SDS_P2;PMS_P1;PMS_P2;Temp;Humidity;BMP_temperature;BMP_pressure;BME280_temperature;BME280_humidity;BME280_pressure;Samples;Min_cycle;Max_cycle;Signal;HPM_P1;HPM_P2
2022/11/14 00:01:07;;;;;;;6.83;4.42;;;;;;;5.45;100.00;101259.81;1791410;80;20961;-89
2022/11/14 00:03:54;;;;;;;8.93;4.75;;;;;;;5.35;100.00;101255.45;1787928;80;20985;-90
2022/11/14 00:06:40;;;;;;;11.30;5.30;;;;;;;5.23;100.00;101254.55;1788408;78;21021;-90
2022/11/14 00:09:27;;;;;;;9.00;5.17;;;;;;;5.16;100.00;101253.23;1787572;78;21028;-90
2022/11/14 00:12:12;;;;;;;9.33;4.95;;;;;;;5.12;100.00;101247.11;1787791;80;21262;-92
2022/11/14 00:14:57;;;;;;;10.63;5.05;;;;;;;5.06;100.00;101245.77;1748935;81;21005;-89
2022/11/14 00:17:44;;;;;;;11.00;4.92;;;;;;;5.09;100.00;101251.02;1755478;80;21016;-92
2022/11/14 00:20:31;;;;;;;13.28;5.20;;;;;;;5.03;100.00;101245.77;1755724;81;22062;-90
2022/11/14 00:23:16;;;;;;;11.85;4.83;;;;;;;5.12;100.00;101247.11;1755401;80;21638;-91
2022/11/14 00:26:04;;;;;;;11.57;4.80;;;;;;;5.16;100.00;101251.92;1755428;81;21091;-89
2022/11/14 00:28:49;;;;;;;6.45;4.67;;;;;;;5.14;100.00;101250.59;1755693;81;21091;-91
2022/11/14 00:31:35;;;;;;;11.70;5.08;;;;;;;4.90;100.00;101253.11;1755749;81;21099;-91
2022/11/14 00:34:20;;;;;;;9.10;5.00;;;;;;;4.89;100.00;101252.68;1755723;81;21064;-90
2022/11/14 00:37:07;;;;;;;9.68;5.33;;;;;;;4.75;100.00;101255.23;1755233;81;21079;-89
2022/11/14 00:39:51;;;;;;;8.50;5.10;;;;;;;4.60;100.00;101261.22;1755366;81;21128;-91
2022/11/14 00:42:37;;;;;;;10.35;4.83;;;;;;;4.51;100.00;101260.77;1755336;81;20993;-90
2022/11/14 00:45:22;;;;;;;11.73;5.87;;;;;;;4.56;100.00;101263.40;1756072;81;21016;-91
2022/11/14 00:48:08;;;;;;;9.05;5.25;;;;;;;4.50;100.00;101262.91;1758015;81;20996;-90
2022/11/14 00:50:53;;;;;;;11.73;6.00;;;;;;;4.49;100.00;101261.63;1755388;80;22339;-89
2022/11/14 00:53:38;;;;;;;7.67;4.87;;;;;;;4.39;100.00;101258.95;1757929;80;21144;-89
2022/11/14 00:56:23;;;;;;;7.17;4.08;;;;;;;4.43;100.00;101260.27;1758632;80;21078;-89
2022/11/14 00:59:07;;;;;;;12.58;5.55;;;;;;;4.27;100.00;101258.85;1758054;81;21095;-90
2022/11/14 01:01:52;;;;;;;8.43;4.50;;;;;;;4.22;100.00;101252.74;1757104;81;21868;-89
2022/11/14 01:04:37;;;;;;;12.82;5.12;;;;;;;4.13;100.00;101257.89;1771500;81;21036;-88
2022/11/14 01:07:22;;;;;;;9.33;4.92;;;;;;;4.16;100.00;101254.89;1771560;79;21873;-88
2022/11/14 01:10:08;;;;;;;9.03;4.17;;;;;;;4.10;100.00;101260.48;1772149;79;21017;-88
2022/11/14 01:12:53;;;;;;;12.98;5.15;;;;;;;3.94;100.00;101267.30;1771828;81;21047;-89
2022/11/14 01:15:42;;;;;;;8.75;4.75;;;;;;;4.02;100.00;101260.41;1781220;79;21032;-90
2022/11/14 01:18:29;;;;;;;9.15;4.58;;;;;;;3.97;100.00;101262.11;1788563;78;21051;-89
2022/11/14 01:21:14;;;;;;;12.45;5.33;;;;;;;3.90;100.00;101271.61;1788646;80;21255;-91
2022/11/14 01:23:59;;;;;;;11.15;4.80;;;;;;;3.74;100.00;101269.73;1788806;80;21135;-89
2022/11/14 01:26:44;;;;;;;8.38;4.83;;;;;;;3.65;100.00;101274.41;1788666;80;21347;-88
2022/11/14 01:29:29;;;;;;;12.75;5.40;;;;;;;3.63;100.00;101273.96;1788771;80;21062;-89
2022/11/14 01:32:14;;;;;;;12.03;5.20;;;;;;;3.47;100.00;101271.19;1788800;80;21078;-90
2022/11/14 01:34:59;;;;;;;13.65;4.97;;;;;;;3.51;100.00;101274.72;1788718;80;21149;-89
2022/11/14 01:37:44;;;;;;;10.70;4.97;;;;;;;3.58;100.00;101273.91;1788937;80;21008;-89
2022/11/14 01:40:31;;;;;;;7.72;4.78;;;;;;;3.53;100.00;101269.96;1789327;80;21495;-89
2022/11/14 01:43:31;;;;;;;7.33;4.53;;;;;;;3.50;100.00;101273.84;1789855;80;20989;-89
2022/11/14 01:46:26;;;;;;;10.78;5.33;;;;;;;3.52;100.00;101279.05;1789210;80;21028;-89
2022/11/14 01:49:27;;;;;;;12.58;5.40;;;;;;;3.34;100.00;101273.25;1789975;78;22274;-90
2022/11/14 01:52:23;;;;;;;8.78;4.75;;;;;;;3.24;100.00;101277.89;1789627;80;21035;-86
2022/11/14 01:55:09;;;;;;;10.78;4.78;;;;;;;3.21;100.00;101278.73;1768099;79;20977;-90
2022/11/14 01:57:54;;;;;;;14.68;5.30;;;;;;;3.13;100.00;101285.16;1788047;79;21138;-90
2022/11/14 02:00:39;;;;;;;10.95;4.65;;;;;;;3.15;100.00;101278.64;1782346;80;22221;-92
2022/11/14 02:03:24;;;;;;;10.78;5.22;;;;;;;3.00;100.00;101279.34;1766683;81;21242;-89
2022/11/14 02:06:14;;;;;;;9.23;5.30;;;;;;;3.07;100.00;101279.00;1766550;79;21047;-91
2022/11/14 02:09:03;;;;;;;9.30;4.67;;;;;;;3.11;100.00;101278.19;1766674;79;20994;-89
2022/11/14 02:11:48;;;;;;;9.45;4.78;;;;;;;3.02;100.00;101277.64;1766750;81;21091;-90
2022/11/14 02:14:33;;;;;;;9.75;4.65;;;;;;;3.02;100.00;101280.25;1766607;81;20996;-91
2022/11/14 02:17:18;;;;;;;11.78;4.70;;;;;;;2.97;100.00;101278.02;1744206;78;21158;-90
2022/11/14 02:20:19;;;;;;;7.08;4.20;;;;;;;2.87;100.00;101276.14;1766574;81;21106;-92
2022/11/14 02:23:05;;;;;;;12.00;4.55;;;;;;;2.85;100.00;101280.45;1768839;78;20992;-90
2022/11/14 02:25:50;;;;;;;12.18;4.37;;;;;;;2.85;100.00;101280.45;1770444;78;20973;-90
2022/11/14 02:28:35;;;;;;;8.40;4.25;;;;;;;2.83;100.00;101286.05;1771027;78;21213;-91
2022/11/14 02:31:20;;;;;;;9.83;4.47;;;;;;;2.77;100.00;101284.70;1770271;78;21243;-88
2022/11/14 02:34:05;;;;;;;9.95;4.33;;;;;;;2.74;100.00;101284.23;1770748;78;21148;-91
2022/11/14 02:36:49;;;;;;;7.80;3.83;;;;;;;2.67;100.00;101279.80;1768667;78;21129;-87
2022/11/14 02:39:36;;;;;;;9.98;5.20;;;;;;;2.82;100.00;101283.02;1770974;78;21036;-89
2022/11/14 02:42:22;;;;;;;9.75;4.90;;;;;;;2.82;100.00;101267.41;1770214;78;21004;-88
2022/11/14 02:45:09;;;;;;;8.58;5.50;;;;;;;2.82;100.00;101267.41;1770651;78;21025;-89
2022/11/14 02:47:53;;;;;;;8.68;4.80;;;;;;;2.75;100.00;101274.69;1768910;78;21000;-89
2022/11/14 02:50:39;;;;;;;10.93;5.00;;;;;;;2.39;100.00;101278.51;1766656;81;21056;-90
2022/11/14 02:53:24;;;;;;;7.80;4.70;;;;;;;2.42;100.00;101274.67;1766570;81;21035;-91
2022/11/14 02:56:09;;;;;;;9.28;4.80;;;;;;;2.27;100.00;101277.47;1766969;81;21028;-90
2022/11/14 02:58:56;;;;;;;9.23;5.03;;;;;;;2.25;100.00;101284.36;1743347;81;21165;-91
2022/11/14 03:01:40;;;;;;;9.95;4.67;;;;;;;2.38;100.00;101282.84;1766112;81;21047;-90
2022/11/14 03:04:25;;;;;;;9.13;4.40;;;;;;;2.25;100.00;101283.50;1768668;81;20999;-91
2022/11/14 03:07:10;;;;;;;7.47;4.53;;;;;;;2.07;100.00;101280.17;1768080;78;20996;-91
2022/11/14 03:09:56;;;;;;;9.40;3.90;;;;;;;2.19;100.00;101275.20;1766412;79;21059;-90
2022/11/14 03:12:41;;;;;;;10.13;4.58;;;;;;;1.97;100.00;101272.66;1766376;81;21119;-88
2022/11/14 03:15:26;;;;;;;11.33;4.62;;;;;;;2.06;100.00;101271.95;1770551;80;21038;-90
2022/11/14 03:18:14;;;;;;;9.53;4.65;;;;;;;2.18;100.00;101276.46;1787192;78;21106;-89
2022/11/14 03:21:09;;;;;;;7.37;4.08;;;;;;;2.00;100.00;101277.03;1787486;80;21065;-90
2022/11/14 03:23:54;;;;;;;7.20;3.83;;;;;;;2.03;100.00;101283.60;1787416;80;21075;-89
2022/11/14 03:26:40;;;;;;;9.73;4.10;;;;;;;1.96;100.00;101281.76;1787678;80;21281;-91
2022/11/14 03:29:25;;;;;;;10.28;4.70;;;;;;;2.01;100.00;101287.89;1789214;80;21142;-89
2022/11/14 03:32:10;;;;;;;8.40;4.05;;;;;;;1.99;100.00;101288.30;1787516;80;21044;-90
2022/11/14 03:34:55;;;;;;;9.63;4.87;;;;;;;1.85;100.00;101288.92;1787311;80;21064;-92
2022/11/14 03:37:41;;;;;;;10.58;4.42;;;;;;;1.79;100.00;101294.00;1787273;80;21075;-91
2022/11/14 03:40:26;;;;;;;6.75;4.35;;;;;;;1.75;100.00;101299.12;1787256;80;21267;-91
2022/11/14 03:43:11;;;;;;;8.00;4.12;;;;;;;1.65;100.00;101301.98;1787127;80;21053;-91
2022/11/14 03:45:59;;;;;;;12.93;4.60;;;;;;;1.58;100.00;101294.50;1787470;80;21095;-92
2022/11/14 03:48:45;;;;;;;10.03;4.50;;;;;;;1.64;100.00;101295.92;1788246;78;20958;-91
2022/11/14 03:51:30;;;;;;;8.35;4.10;;;;;;;1.61;100.00;101296.27;1787561;80;21068;-90
2022/11/14 03:54:15;;;;;;;7.12;3.52;;;;;;;1.62;100.00;101301.51;1787476;80;21238;-89
2022/11/14 03:57:00;;;;;;;8.83;4.47;;;;;;;1.52;100.00;101294.41;1787020;80;21044;-89
2022/11/14 03:59:46;;;;;;;6.55;3.98;;;;;;;1.51;100.00;101291.77;1787369;80;21076;-88
2022/11/14 04:02:32;;;;;;;8.33;4.20;;;;;;;1.68;100.00;101295.56;1805063;79;21043;-91
2022/11/14 04:05:17;;;;;;;9.13;4.12;;;;;;;1.67;100.00;101288.61;1809134;78;21015;-91
2022/11/14 04:08:06;;;;;;;7.67;3.87;;;;;;;1.71;100.00;101289.55;1809243;77;21208;-91
2022/11/14 04:10:51;;;;;;;7.83;4.20;;;;;;;1.68;100.00;101292.53;1809627;78;21069;-90
2022/11/14 04:13:37;;;;;;;10.25;4.35;;;;;;;1.72;100.00;101296.05;1808842;79;21026;-90
2022/11/14 04:16:23;;;;;;;8.85;4.30;;;;;;;1.72;100.00;101298.64;1811006;77;21607;-89
2022/11/14 04:19:07;;;;;;;9.25;4.42;;;;;;;1.57;100.00;101297.09;1812585;79;21045;-90
2022/11/14 04:21:52;;;;;;;12.47;4.33;;;;;;;1.52;100.00;101298.70;1812407;77;21918;-89
2022/11/14 04:24:38;;;;;;;10.90;4.08;;;;;;;1.53;100.00;101294.84;1812767;79;21058;-90
2022/11/14 04:27:23;;;;;;;5.58;3.65;;;;;;;1.45;100.00;101299.91;1812896;79;21590;-91
2022/11/14 04:30:09;;;;;;;9.30;3.83;;;;;;;1.45;100.00;101303.80;1812754;79;21022;-89
2022/11/14 04:32:54;;;;;;;7.62;3.95;;;;;;;1.45;100.00;101305.53;1812456;79;21011;-90
2022/11/14 04:35:40;;;;;;;9.95;4.40;;;;;;;1.50;100.00;101306.91;1791935;79;22166;-89
2022/11/14 04:38:25;;;;;;;7.03;4.53;;;;;;;1.45;100.00;101312.88;1812825;79;21069;-91
2022/11/14 04:41:10;;;;;;;8.03;4.03;;;;;;;1.44;100.00;101312.41;1813169;78;21031;-90
2022/11/14 04:43:54;;;;;;;9.13;3.60;;;;;;;1.49;100.00;101317.69;1812225;79;21098;-90
2022/11/14 04:46:40;;;;;;;7.35;4.20;;;;;;;1.49;100.00;101317.69;1812578;79;21546;-92
2022/11/14 04:49:25;;;;;;;8.28;3.85;;;;;;;1.44;100.00;101324.09;1812488;77;21153;-87
2022/11/14 04:52:10;;;;;;;6.37;3.80;;;;;;;1.40;100.00;101330.09;1812059;79;21007;-90
2022/11/14 04:54:55;;;;;;;13.75;5.22;;;;;;;1.31;100.00;101332.52;1812729;79;21018;-90
2022/11/14 04:57:40;;;;;;;11.95;4.62;;;;;;;1.22;100.00;101325.81;1812977;79;21012;-90
2022/11/14 05:00:26;;;;;;;5.95;3.85;;;;;;;1.32;100.00;101326.46;1802472;79;21096;-90
2022/11/14 05:03:10;;;;;;;9.10;3.67;;;;;;;1.32;100.00;101324.30;1765052;81;21635;-91
2022/11/14 05:06:02;;;;;;;6.30;3.98;;;;;;;1.27;100.00;101320.31;1764645;79;21092;-90
2022/11/14 05:08:47;;;;;;;6.20;3.90;;;;;;;1.24;100.00;101328.92;1764317;79;21169;-91
2022/11/14 05:11:34;;;;;;;10.60;4.65;;;;;;;1.20;100.00;101332.72;1764354;81;21044;-89
2022/11/14 05:14:18;;;;;;;10.08;4.00;;;;;;;1.22;100.00;101334.89;1764731;81;21087;-91
2022/11/14 05:17:04;;;;;;;6.55;3.60;;;;;;;1.29;100.00;101341.09;1763024;79;21239;-90
2022/11/14 05:19:49;;;;;;;5.97;3.60;;;;;;;1.29;100.00;101341.98;1761443;81;21103;-90
2022/11/14 05:22:35;;;;;;;10.28;4.05;;;;;;;1.30;100.00;101345.02;1761645;80;21076;-91
2022/11/14 05:25:20;;;;;;;9.23;3.95;;;;;;;1.23;100.00;101340.55;1762073;81;21068;-91
2022/11/14 05:28:05;;;;;;;9.68;4.22;;;;;;;1.22;100.00;101347.86;1761985;81;21008;-90
2022/11/14 05:30:51;;;;;;;10.78;4.20;;;;;;;1.24;100.00;101343.19;1761839;81;21575;-90
2022/11/14 05:33:36;;;;;;;9.40;4.20;;;;;;;1.30;100.00;101343.72;1762218;81;21025;-91
2022/11/14 05:36:21;;;;;;;11.53;4.05;;;;;;;1.29;100.00;101343.28;1761786;81;21594;-90
2022/11/14 05:39:06;;;;;;;6.47;3.90;;;;;;;1.27;100.00;101355.34;1761665;81;21040;-89
2022/11/14 05:41:51;;;;;;;7.87;3.67;;;;;;;1.29;100.00;101354.96;1763486;81;20949;-90
2022/11/14 05:44:37;;;;;;;12.03;3.87;;;;;;;1.34;100.00;101346.84;1766286;80;21098;-89
2022/11/14 05:47:22;;;;;;;8.50;3.92;;;;;;;1.35;100.00;101353.77;1765623;80;21210;-90
2022/11/14 05:50:08;;;;;;;11.15;4.90;;;;;;;1.37;100.00;101354.67;1765082;80;21029;-89
2022/11/14 05:52:55;;;;;;;8.08;3.80;;;;;;;1.37;100.00;101357.27;1765172;80;21048;-91
2022/11/14 05:55:42;;;;;;;6.60;4.15;;;;;;;1.45;100.00;101355.72;1761658;81;21051;-89
2022/11/14 05:58:27;;;;;;;9.33;4.22;;;;;;;1.40;100.00;101357.36;1762018;81;21912;-90
2022/11/14 06:01:17;;;;;;;10.28;4.45;;;;;;;1.43;100.00;101363.89;1721029;81;21008;-89
2022/11/14 06:04:05;;;;;;;9.00;4.07;;;;;;;1.50;100.00;101362.73;1766577;81;20886;-90
2022/11/14 06:06:50;;;;;;;11.28;5.17;;;;;;;1.46;100.00;101364.38;1766197;80;20973;-90
2022/11/14 06:09:36;;;;;;;31.45;7.87;;;;;;;1.96;100.00;101358.40;1765495;80;21075;-91
2022/11/14 06:12:24;;;;;;;13.25;5.65;;;;;;;2.66;100.00;101366.03;1765624;80;21056;-91
2022/11/14 06:15:09;;;;;;;9.85;4.85;;;;;;;3.60;100.00;101372.92;1712998;81;21052;-91
2022/11/14 06:17:54;;;;;;;11.97;4.60;;;;;;;4.55;100.00;101362.94;1757295;80;21080;-92
2022/11/14 06:20:41;;;;;;;8.95;3.98;;;;;;;5.48;100.00;101364.34;1756569;80;21044;-89
2022/11/14 06:23:26;;;;;;;6.90;3.35;;;;;;;6.14;100.00;101353.19;1757187;81;21041;-91
2022/11/14 06:26:29;;;;;;;4.80;3.00;;;;;;;6.79;100.00;101357.97;1756661;81;21784;-91
2022/11/14 06:29:14;;;;;;;7.33;3.80;;;;;;;7.57;100.00;101362.95;1756955;80;21041;-90
2022/11/14 06:32:00;;;;;;;9.20;3.10;;;;;;;8.14;100.00;101351.66;1756991;81;21051;-90
2022/11/14 06:34:45;;;;;;;6.37;3.67;;;;;;;8.66;100.00;101349.50;1757233;81;21529;-90
2022/11/14 06:37:30;;;;;;;8.00;3.20;;;;;;;9.11;100.00;101353.41;1756663;81;21075;-90
2022/11/14 06:40:16;;;;;;;5.67;2.87;;;;;;;9.57;100.00;101350.62;1757510;81;21194;-92
2022/11/14 06:43:01;;;;;;;8.78;3.00;;;;;;;9.98;100.00;101352.67;1756405;81;21646;-92
2022/11/14 06:45:46;;;;;;;6.45;3.22;;;;;;;10.50;100.00;101358.91;1757031;81;21052;-91
2022/11/14 06:48:31;;;;;;;6.83;3.27;;;;;;;10.74;100.00;101362.87;1756625;80;21059;-91
2022/11/14 06:51:16;;;;;;;5.92;3.12;;;;;;;11.21;100.00;101355.84;1757005;81;21048;-88
2022/11/14 06:54:01;;;;;;;6.20;2.75;;;;;;;11.73;100.00;101360.45;1757296;81;21091;-91
2022/11/14 06:56:45;;;;;;;6.60;2.72;;;;;;;12.07;100.00;101359.27;1756204;81;21099;-92
2022/11/14 06:59:31;;;;;;;6.37;2.40;;;;;;;12.37;100.00;101335.65;1756577;81;21020;-92
2022/11/14 07:02:19;;;;;;;4.80;2.37;;;;;;;13.04;100.00;101359.42;1794625;78;21003;-90
2022/11/14 07:05:06;;;;;;;6.80;2.90;;;;;;;13.53;100.00;101366.02;1812913;77;21069;-91
2022/11/14 07:07:51;;;;;;;7.20;2.45;;;;;;;14.17;100.00;101360.94;1811789;77;21086;-89
2022/11/14 07:10:40;;;;;;;5.40;2.37;;;;;;;14.52;100.00;101362.91;1809562;79;21058;-93
2022/11/14 07:13:25;;;;;;;7.80;2.40;;;;;;;15.12;99.61;101360.38;1809442;79;21078;-91
2022/11/14 07:16:10;;;;;;;4.60;2.40;;;;;;;15.42;81.05;101366.81;1809889;78;21022;-92
2022/11/14 07:18:59;;;;;;;3.95;2.20;;;;;;;15.63;71.14;101355.84;1809309;79;20995;-92
2022/11/14 07:21:45;;;;;;;4.42;2.52;;;;;;;16.29;69.28;101358.56;1809366;77;21252;-90
2022/11/14 07:24:30;;;;;;;5.10;2.30;;;;;;;16.43;63.88;101354.00;1809584;79;21030;-92
2022/11/14 07:27:15;;;;;;;6.62;2.52;;;;;;;16.64;64.75;101358.87;1810622;79;21066;-90
2022/11/14 07:30:01;;;;;;;5.97;2.72;;;;;;;16.72;61.24;101363.38;1811242;79;21004;-91
2022/11/14 07:32:46;;;;;;;5.83;2.37;;;;;;;16.67;62.02;101368.03;1811665;79;21058;-92
2022/11/14 07:35:34;;;;;;;5.47;2.30;;;;;;;17.06;59.87;101365.45;1784771;79;21022;-92
2022/11/14 07:38:19;;;;;;;5.65;2.58;;;;;;;17.09;58.41;101368.01;1809227;79;21067;-90
2022/11/14 07:41:08;;;;;;;4.50;2.50;;;;;;;17.30;54.74;101364.84;1809555;79;21345;-89
2022/11/14 07:43:53;;;;;;;5.97;2.67;;;;;;;17.37;55.59;101360.11;1809260;79;21117;-94
2022/11/14 07:46:38;;;;;;;5.17;2.67;;;;;;;17.63;55.18;101370.88;1810271;79;21054;-90
2022/11/14 07:49:23;;;;;;;7.15;3.10;;;;;;;17.75;53.07;101360.96;1810105;77;21133;-93
2022/11/14 07:52:09;;;;;;;5.95;2.58;;;;;;;17.79;53.42;101359.88;1809316;79;20999;-92
2022/11/14 07:54:55;;;;;;;6.28;2.80;;;;;;;18.00;51.81;101353.16;1811043;79;21031;-93
2022/11/14 07:57:40;;;;;;;4.60;2.40;;;;;;;18.18;50.76;101345.59;1811063;78;21003;-91
2022/11/14 08:00:24;;;;;;;4.33;2.47;;;;;;;18.32;49.94;101340.05;1810586;79;21039;-92
2022/11/14 08:03:09;;;;;;;5.20;2.58;;;;;;;18.49;49.65;101336.52;1757959;81;21138;-92
2022/11/14 08:06:06;;;;;;;5.37;2.42;;;;;;;18.68;49.36;101336.44;1757997;80;21084;-90
2022/11/14 08:08:51;;;;;;;4.35;2.30;;;;;;;19.17;47.61;101335.23;1758246;80;20978;-91
2022/11/14 08:11:48;;;;;;;9.68;2.60;;;;;;;19.28;47.64;101332.84;1758487;80;21024;-91
2022/11/14 08:14:36;;;;;;;6.22;2.65;;;;;;;19.05;47.46;101329.59;1758734;81;20998;-89
2022/11/14 08:17:26;;;;;;;5.53;2.20;;;;;;;19.24;46.11;101328.61;1757352;80;22011;-92
2022/11/14 08:20:11;;;;;;;4.53;2.15;;;;;;;19.68;46.38;101328.84;1758601;80;21068;-92
2022/11/14 08:23:14;;;;;;;4.72;2.15;;;;;;;19.87;44.98;101325.13;1759021;80;21018;-91
2022/11/14 08:26:11;;;;;;;2.75;1.80;;;;;;;20.19;43.91;101315.73;1758886;81;21057;-91
2022/11/14 08:29:01;;;;;;;5.55;1.95;;;;;;;20.70;43.37;101313.60;1769932;78;20989;-91
2022/11/14 08:31:46;;;;;;;6.78;2.17;;;;;;;21.15;42.38;101308.57;1788930;80;21060;-92
2022/11/14 08:34:36;;;;;;;5.50;1.90;;;;;;;21.65;41.23;101305.45;1790557;80;21095;-91
2022/11/14 08:37:29;;;;;;;3.52;1.90;;;;;;;21.98;39.46;101293.87;1787979;80;21033;-89
2022/11/14 08:40:24;;;;;;;3.87;1.95;;;;;;;21.89;38.59;101302.52;1790754;80;21088;-92
2022/11/14 08:43:10;;;;;;;3.50;1.67;;;;;;;21.84;38.33;101304.66;1764633;80;21069;-93
2022/11/14 08:46:03;;;;;;;2.70;1.65;;;;;;;21.42;38.25;101294.87;1784800;80;21056;-92
2022/11/14 08:48:50;;;;;;;4.30;1.50;;;;;;;21.58;38.57;101296.50;1790804;78;20946;-93
2022/11/14 08:51:36;;;;;;;3.58;1.60;;;;;;;21.98;37.79;101296.55;1792278;78;21009;-91
2022/11/14 08:54:25;;;;;;;3.70;1.55;;;;;;;22.18;36.84;101291.20;1789378;78;21021;-90
2022/11/14 08:57:14;;;;;;;3.90;1.30;;;;;;;22.27;36.49;101296.47;1790884;78;21029;-92
2022/11/14 08:59:58;;;;;;;7.85;1.60;;;;;;;22.54;36.77;101296.87;1790229;78;21520;-91
2022/11/14 09:02:45;;;;;;;2.25;1.05;;;;;;;22.91;35.86;101293.81;1808107;78;21225;-90
2022/11/14 09:05:31;;;;;;;2.15;1.05;;;;;;;23.15;33.37;101298.47;1809445;77;21101;-92
2022/11/14 09:08:16;;;;;;;6.03;1.32;;;;;;;22.97;34.66;101292.05;1809507;77;21058;-93
2022/11/14 09:11:02;;;;;;;1.87;1.20;;;;;;;22.80;34.43;101285.68;1809640;79;21094;-92
2022/11/14 09:13:50;;;;;;;4.20;1.67;;;;;;;22.61;34.04;101278.02;1809646;79;21496;-91
2022/11/14 09:16:35;;;;;;;4.62;1.57;;;;;;;22.53;34.20;101276.38;1809717;77;21301;-91
2022/11/14 09:19:20;;;;;;;3.62;1.20;;;;;;;22.64;34.15;101275.15;1809531;79;21015;-91
2022/11/14 09:22:05;;;;;;;8.03;1.40;;;;;;;22.62;33.47;101271.70;1809319;77;21043;-92
2022/11/14 09:24:51;;;;;;;4.53;1.25;;;;;;;22.64;33.19;101272.47;1810267;79;21051;-94
2022/11/14 09:27:35;;;;;;;5.40;1.32;;;;;;;22.62;33.50;101271.70;1809473;79;21244;-92
2022/11/14 09:30:24;;;;;;;2.45;1.10;;;;;;;22.63;33.91;101264.02;1809139;79;21511;-93
2022/11/14 09:33:12;;;;;;;3.60;1.45;;;;;;;22.87;33.66;101272.65;1809727;79;21055;-92
2022/11/14 09:36:04;;;;;;;4.35;1.40;;;;;;;23.13;33.04;101274.39;1810565;79;22021;-92
2022/11/14 09:38:50;;;;;;;3.62;1.20;;;;;;;23.15;32.54;101269.77;1810272;79;21050;-91
2022/11/14 09:42:34;;;;;;;5.10;1.12;;;;;;;23.15;32.07;101272.45;1813867;78;21340;-91
2022/11/14 09:45:20;;;;;;;3.25;1.20;;;;;;;23.06;32.41;101273.11;1813689;78;20873;-90
2022/11/14 09:48:20;;;;;;;4.60;1.72;;;;;;;23.00;31.77;101270.85;1812558;78;21023;-91
2022/11/14 09:51:16;;;;;;;10.60;1.90;;;;;;;22.85;31.49;101261.19;1813529;78;21050;-93
2022/11/14 09:54:25;;;;;;;3.55;1.50;;;;;;;22.52;32.59;101261.22;1810656;78;20988;-92
2022/11/14 10:01:08;;;;;;;4.08;1.95;;;;;;;22.12;33.65;101259.41;1849506;75;21845;-90
2022/11/14 10:04:25;;;;;;;5.45;2.00;;;;;;;22.70;33.23;101255.91;1760160;78;21075;-91
2022/11/14 10:07:22;;;;;;;4.37;1.80;;;;;;;23.00;32.66;101254.73;1755410;78;21268;-93
2022/11/14 10:10:51;;;;;;;4.95;1.80;;;;;;;23.22;31.95;101242.82;1760033;78;20996;-90
2022/11/14 10:14:06;;;;;;;7.25;2.40;;;;;;;23.21;31.86;101253.21;1770002;78;21008;-92
2022/11/14 10:17:16;;;;;;;4.30;2.05;;;;;;;22.00;33.07;101254.39;1770756;78;21076;-92
2022/11/14 10:20:34;;;;;;;4.93;2.40;;;;;;;21.07;34.98;101255.98;1775917;80;21028;-91
2022/11/14 10:23:52;;;;;;;4.55;2.10;;;;;;;21.43;34.82;101251.92;1706033;82;21275;-93
2022/11/14 10:26:44;;;;;;;6.58;2.37;;;;;;;21.37;34.79;101258.97;1699191;82;21594;-90
2022/11/14 10:29:55;;;;;;;4.03;1.80;;;;;;;21.08;35.11;101252.33;1756259;78;21044;-90
2022/11/14 10:32:51;;;;;;;6.30;2.12;;;;;;;20.58;35.55;101245.62;1769825;78;21041;-91
2022/11/14 10:35:49;;;;;;;4.20;1.70;;;;;;;19.98;36.91;101245.66;1768372;80;21466;-90
2022/11/14 10:38:43;;;;;;;4.08;2.05;;;;;;;20.17;37.28;101246.27;1762934;78;21805;-92
2022/11/14 10:41:28;;;;;;;5.67;2.02;;;;;;;20.51;36.56;101230.88;1776674;80;20969;-91
2022/11/14 10:44:18;;;;;;;4.33;1.52;;;;;;;20.83;36.44;101233.41;1775820;78;20977;-92
2022/11/14 10:47:12;;;;;;;4.58;1.52;;;;;;;21.18;35.51;101233.00;1763960;78;21526;-89
2022/11/14 10:49:57;;;;;;;4.33;1.52;;;;;;;21.52;35.43;101230.37;1774220;78;21095;-92
2022/11/14 10:52:41;;;;;;;5.75;1.70;;;;;;;22.07;34.16;101224.48;1776570;80;21844;-90
2022/11/14 10:55:30;;;;;;;5.75;1.72;;;;;;;22.55;33.63;101230.16;1776623;80;20969;-91
2022/11/14 10:58:15;;;;;;;4.55;1.65;;;;;;;22.41;33.43;101209.16;1765287;78;21006;-92
2022/11/14 11:01:39;;;;;;;5.65;1.95;;;;;;;22.67;33.17;101227.94;1783653;78;21034;-92
2022/11/14 11:04:32;;;;;;;6.87;1.95;;;;;;;22.58;32.78;101223.22;1802018;78;20948;-90
2022/11/14 11:13:35;;;;;;;3.87;1.40;;;;;;;21.53;33.40;101212.86;1818364;78;20989;-91
2022/11/14 11:16:22;;;;;;;3.62;2.05;;;;;;;21.41;34.39;101210.95;1803342;77;20943;-90
2022/11/14 11:19:22;;;;;;;3.40;1.40;;;;;;;21.53;34.21;101213.31;1805712;77;21022;-91
2022/11/14 11:22:23;;;;;;;5.20;1.77;;;;;;;21.68;33.90;101210.97;1803208;78;21865;-90
2022/11/14 11:25:27;;;;;;;6.03;1.60;;;;;;;21.80;33.76;101214.64;1726244;78;22794;-90
2022/11/14 11:28:17;;;;;;;5.45;1.87;;;;;;;21.93;33.64;101212.86;1790366;78;21064;-90
2022/11/14 11:31:09;;;;;;;3.60;1.60;;;;;;;22.15;33.07;101212.73;1807442;79;21165;-92
2022/11/14 11:33:54;;;;;;;29.23;16.00;;;;;;;22.31;32.79;101220.63;1798588;78;21053;-92
2022/11/14 11:36:45;;;;;;;7.08;2.52;;;;;;;22.39;32.97;101215.59;1806932;78;21133;-92
2022/11/14 11:39:34;;;;;;;9.80;4.37;;;;;;;22.38;32.79;101214.75;1807380;78;21052;-93
2022/11/14 11:42:39;;;;;;;5.12;2.20;;;;;;;22.17;32.59;101216.17;1799380;78;21050;-92
2022/11/14 11:45:26;;;;;;;3.55;1.87;;;;;;;21.67;33.24;101215.08;1794225;78;20978;-92
2022/11/14 11:48:20;;;;;;;3.33;1.55;;;;;;;21.45;33.83;101213.83;1800291;78;20994;-92
2022/11/14 11:51:12;;;;;;;7.90;2.10;;;;;;;21.33;33.56;101221.30;1797411;78;21151;-91
2022/11/14 11:54:06;;;;;;;5.45;1.62;;;;;;;21.41;33.67;101212.30;1779287;78;21029;-92
2022/11/14 11:56:54;;;;;;;5.42;1.77;;;;;;;21.45;33.90;101203.11;1770160;78;21038;-93
2022/11/14 11:59:46;;;;;;;5.30;2.15;;;;;;;21.48;33.69;101200.22;1761530;78;21569;-93
2022/11/14 12:02:31;;;;;;;5.33;2.55;;;;;;;21.38;33.77;101198.59;1798360;78;21053;-91
2022/11/14 12:05:59;;;;;;;4.92;1.90;;;;;;;21.14;34.02;101197.50;1817729;78;21017;-91
2022/11/14 12:09:08;;;;;;;2.85;1.45;;;;;;;20.47;34.54;101205.25;1798366;78;20963;-90
2022/11/14 12:11:59;;;;;;;5.87;1.90;;;;;;;19.40;35.94;101205.28;1794757;78;21095;-92
2022/11/14 12:15:05;;;;;;;5.95;2.90;;;;;;;18.45;37.39;101207.80;1801817;78;21036;-89
2022/11/14 12:18:07;;;;;;;7.65;1.92;;;;;;;17.70;38.44;101204.95;1803032;78;20985;-88
2022/11/14 12:21:08;;;;;;;3.77;1.62;;;;;;;17.15;40.86;101211.14;1814229;78;21399;-91
2022/11/14 12:24:23;;;;;;;6.80;1.90;;;;;;;16.90;41.01;101210.95;1807705;78;21538;-90
2022/11/14 12:27:28;;;;;;;7.90;1.72;;;;;;;16.21;42.00;101213.15;1807449;78;21049;-90
2022/11/14 12:30:20;;;;;;;5.75;1.70;;;;;;;15.62;43.36;101206.72;1778340;78;21064;-90
2022/11/14 12:33:13;;;;;;;4.25;1.60;;;;;;;15.89;44.13;101204.75;1798526;78;21038;-91
2022/11/14 12:36:02;;;;;;;5.15;1.67;;;;;;;16.20;43.51;101206.13;1806252;78;21123;-90
2022/11/14 12:38:53;;;;;;;5.80;1.90;;;;;;;16.52;43.12;101201.57;1765258;79;21537;-90
2022/11/14 12:41:38;;;;;;;;;;;;;;;16.76;42.76;101197.39;1786503;78;20989;-90
2022/11/14 12:44:32;;;;;;;4.58;1.70;;;;;;;16.34;42.81;101203.72;1801729;78;20189;-91
2022/11/14 12:47:20;;;;;;;3.05;1.50;;;;;;;15.78;43.84;101205.22;1798508;78;21052;-91
2022/11/14 12:50:33;;;;;;;8.33;2.08;;;;;;;15.14;45.34;101205.98;1800157;78;21030;-91
2022/11/14 12:53:36;;;;;;;5.90;1.90;;;;;;;14.58;46.71;101213.80;1805313;78;22113;-89
2022/11/14 12:56:33;;;;;;;10.23;2.25;;;;;;;14.01;48.25;101204.30;1801513;78;21042;-89
2022/11/14 12:59:35;;;;;;;6.12;2.00;;;;;;;13.54;49.55;101207.62;1798480;78;21023;-88
2022/11/14 13:02:38;;;;;;;5.10;1.85;;;;;;;13.10;51.32;101208.52;1779995;78;20988;-89
2022/11/14 13:05:49;;;;;;;2.98;1.80;;;;;;;13.11;52.57;101201.45;1773886;80;21532;-89
2022/11/14 13:08:58;;;;;;;12.82;3.25;;;;;;;13.13;54.01;101203.13;1769600;80;21082;-90
2022/11/14 13:21:46;;;;;;;4.75;2.40;;;;;;;14.50;51.10;101198.62;1781669;79;21075;-89
2022/11/14 13:25:03;;;;;;;8.63;3.62;;;;;;;14.40;50.86;101202.07;1773959;80;21161;-91
2022/11/14 13:27:48;;;;;;;13.38;3.67;;;;;;;14.08;51.07;101198.34;1775939;80;21049;-90